Language: 


Des rapports , des résumés tant et plus, au choix de chacun....


Données statistiques de la station
Quotidien Rapport Janvier 24, 2017 Unités:  Anglais    Métrique   les deux
« Précédent Jour
Suivant Jour »
Quotidien Hebdomadaire Mensuel Annuel Actuel
  Haut: Bas: Moyen:
Température: 39 °F 31.5 °F 34.2 °F
Pt de rosée: 38.5 °F 30.9 °F 33.8 °F
Humidité: 98 % 0 % 98 %
Vitesse du vent: 4.9 mph 0 mph 0.9 mph
Rafales: 19.7 mph - -
Vent:- - SSW
Pression: 30.4 in 30.3 in -
Précipitation: 0 in    
Historical Graphs
 
 
Données statistiques pour Janvier 24, 2017
Heure Température Point de rosée Pression Vent Vitesse du vent Refales Humidité Pluie (taux horaire)
00:01 31.5 °F 30.9 °F 30.3 in SSW 4.5 mph 5.6 mph 98 % 0 in
00:06 31.5 °F 30.9 °F 30.3 in SW 4 mph 4.9 mph 98 % 0 in
00:11 31.5 °F 30.9 °F 30.3 in WSW 3.6 mph 4.3 mph 98 % 0 in
00:16 31.5 °F 30.9 °F 30.3 in SSW 3.6 mph 5.8 mph 98 % 0 in
00:21 31.5 °F 30.9 °F 30.3 in SW 4 mph 6 mph 98 % 0 in
00:26 31.6 °F 31.1 °F 30.3 in WSW 4.3 mph 6 mph 98 % 0 in
00:31 31.6 °F 31.1 °F 30.3 in WSW 2.2 mph 5.4 mph 98 % 0 in
00:36 31.6 °F 31.1 °F 30.3 in Calm   4.3 mph 98 % 0 in
00:41 31.6 °F 31.1 °F 30.3 in WSW 3.1 mph 3.4 mph 98 % 0 in
00:46 31.6 °F 31.1 °F 30.3 in WSW 2.9 mph 3.4 mph 98 % 0 in
00:51 31.6 °F 31.1 °F 30.3 in Calm   4 mph 98 % 0 in
00:56 31.8 °F 31.3 °F 30.3 in Calm   4 mph 98 % 0 in
01:01 31.8 °F 31.3 °F 30.3 in Calm   0.9 mph 98 % 0 in
01:06 31.8 °F 31.3 °F 30.3 in Calm   0.9 mph 98 % 0 in
01:11 31.8 °F 31.3 °F 30.3 in Calm   3.6 mph 98 % 0 in
01:16 31.8 °F 31.3 °F 30.3 in West 3.8 mph 4.5 mph 98 % 0 in
01:21 31.8 °F 31.3 °F 30.3 in WSW 4.3 mph 5.4 mph 98 % 0 in
01:26 32 °F 31.5 °F 30.3 in WSW 3.1 mph 5.4 mph 98 % 0 in
01:31 32 °F 31.5 °F 30.3 in WSW 3.4 mph 4.7 mph 98 % 0 in
01:36 32 °F 31.5 °F 30.3 in WSW 3.8 mph 4.3 mph 98 % 0 in
01:41 32 °F 31.5 °F 30.3 in SW 3.1 mph 4.3 mph 98 % 0 in
01:46 32 °F 31.5 °F 30.3 in Calm   3.8 mph 98 % 0 in
01:51 32 °F 31.5 °F 30.3 in SW 2.9 mph 3.8 mph 98 % 0 in
01:56 32 °F 31.5 °F 30.3 in Calm   3.8 mph 98 % 0 in
02:02 32 °F 31.5 °F 30.3 in Calm   2.7 mph 0 % 0 in
02:07 32.2 °F 31.6 °F 30.3 in Calm     98 % 0 in
02:12 32.2 °F 31.6 °F 30.3 in Calm   2.9 mph 98 % 0 in
02:17 32.2 °F 31.6 °F 30.3 in WSW 3.4 mph 3.4 mph 98 % 0 in
02:22 32.2 °F 31.6 °F 30.3 in Calm   3.4 mph 98 % 0 in
02:27 32.2 °F 31.6 °F 30.3 in Calm   3.4 mph 98 % 0 in
02:32 32.2 °F 31.6 °F 30.3 in WSW 4.3 mph 4.5 mph 98 % 0 in
02:37 32.4 °F 31.8 °F 30.3 in West 3.1 mph 4.5 mph 98 % 0 in
02:42 32.4 °F 31.8 °F 30.3 in West 3.6 mph 6 mph 98 % 0 in
02:47 32.4 °F 31.8 °F 30.3 in West 4.3 mph 6 mph 98 % 0 in
02:52 32.4 °F 31.8 °F 30.3 in WSW 4 mph 5.8 mph 98 % 0 in
02:57 32.4 °F 31.8 °F 30.3 in WSW 4 mph 5.8 mph 98 % 0 in
03:02 32.4 °F 31.8 °F 30.3 in Calm   5.4 mph 98 % 0 in
03:07 32.4 °F 31.8 °F 30.3 in Calm   3.4 mph 98 % 0 in
03:12 32.4 °F 31.8 °F 30.3 in Calm   3.8 mph 98 % 0 in
03:17 32.4 °F 31.8 °F 30.3 in Calm   3.8 mph 98 % 0 in
03:22 32.4 °F 31.8 °F 30.3 in Calm   3.8 mph 98 % 0 in
03:27 32.4 °F 31.8 °F 30.3 in West 0.9 mph 3.6 mph 98 % 0 in
03:32 32.4 °F 31.8 °F 30.3 in Calm   3.4 mph 98 % 0 in
03:37 32.4 °F 31.8 °F 30.3 in Calm   3.1 mph 98 % 0 in
03:42 32.4 °F 31.8 °F 30.3 in Calm   2.9 mph 98 % 0 in
03:47 32.4 °F 31.8 °F 30.3 in Calm   1.1 mph 98 % 0 in
03:52 32.5 °F 32 °F 30.3 in Calm   2.7 mph 98 % 0 in
03:57 32.5 °F 32 °F 30.3 in Calm   2.7 mph 98 % 0 in
04:02 32.5 °F 32 °F 30.3 in West 1.6 mph 2.7 mph 98 % 0 in
04:07 32.5 °F 32 °F 30.3 in WSW 3.1 mph 4.9 mph 98 % 0 in
04:12 32.7 °F 32.2 °F 30.3 in WSW 3.4 mph 4.9 mph 98 % 0 in
04:17 32.7 °F 32.2 °F 30.3 in Calm   4.7 mph 98 % 0 in
04:22 32.7 °F 32.2 °F 30.3 in WSW 2.5 mph 4.7 mph 98 % 0 in
04:27 32.7 °F 32.2 °F 30.3 in West 3.6 mph 5.4 mph 98 % 0 in
04:32 32.7 °F 32.2 °F 30.3 in Calm   5.4 mph 98 % 0 in
04:37 32.7 °F 32.2 °F 30.3 in Calm   4.3 mph 98 % 0 in
04:42 32.7 °F 32.2 °F 30.3 in Calm   19.7 mph 98 % 0 in
04:47 32.7 °F 32.2 °F 30.3 in Calm   19.7 mph 98 % 0 in
04:52 32.7 °F 32.2 °F 30.3 in West 3.4 mph 4.5 mph 98 % 0 in
04:57 32.7 °F 32.2 °F 30.3 in WSW 2.7 mph 4.5 mph 98 % 0 in
05:02 32.7 °F 32.2 °F 30.3 in West 4.3 mph 4.9 mph 98 % 0 in
05:07 32.7 °F 32.2 °F 30.3 in WSW 3.1 mph 4.9 mph 98 % 0 in
05:12 32.7 °F 32.2 °F 30.3 in West 3.1 mph 5.6 mph 98 % 0 in
05:17 32.5 °F 32 °F 30.3 in WSW 4 mph 5.6 mph 98 % 0 in
05:22 32.5 °F 32 °F 30.3 in WSW 2.9 mph 4.7 mph 98 % 0 in
05:27 32.5 °F 32 °F 30.3 in Calm   4.7 mph 98 % 0 in
05:32 32.5 °F 32 °F 30.3 in Calm   3.1 mph 98 % 0 in
05:37 32.5 °F 32 °F 30.3 in Calm   1.6 mph 98 % 0 in
05:42 32.7 °F 32.2 °F 30.3 in Calm   1.6 mph 98 % 0 in
05:47 32.7 °F 32.2 °F 30.3 in Calm     98 % 0 in
05:52 32.7 °F 32.2 °F 30.3 in Calm     98 % 0 in
05:57 32.7 °F 32.2 °F 30.3 in Calm   1.1 mph 98 % 0 in
06:02 32.7 °F 32.2 °F 30.3 in Calm   1.1 mph 98 % 0 in
06:07 32.7 °F 32.2 °F 30.3 in Calm     98 % 0 in
06:12 32.7 °F 32.2 °F 30.3 in Calm     98 % 0 in
06:17 32.9 °F 32.4 °F 30.3 in Calm     98 % 0 in
06:22 32.9 °F 32.4 °F 30.3 in Calm     98 % 0 in
06:27 32.9 °F 32.4 °F 30.3 in Calm   0.9 mph 98 % 0 in
06:32 32.9 °F 32.4 °F 30.3 in Calm   0.9 mph 98 % 0 in
06:37 33.1 °F 32.5 °F 30.3 in Calm     98 % 0 in
06:42 33.1 °F 32.5 °F 30.3 in Calm     98 % 0 in
06:47 33.1 °F 32.5 °F 30.3 in Calm     98 % 0 in
06:52 33.1 °F 32.5 °F 30.3 in SW 2.5 mph 3.1 mph 98 % 0 in
06:57 33.1 °F 32.5 °F 30.3 in SSW 2.9 mph 3.1 mph 98 % 0 in
07:02 33.1 °F 32.5 °F 30.3 in Calm   2.9 mph 98 % 0 in
07:07 33.1 °F 32.5 °F 30.3 in Calm   2.9 mph 98 % 0 in
07:12 33.3 °F 32.7 °F 30.3 in Calm   1.1 mph 98 % 0 in
07:17 33.3 °F 32.7 °F 30.3 in Calm   1.1 mph 98 % 0 in
07:22 33.3 °F 32.7 °F 30.3 in Calm   0.9 mph 98 % 0 in
07:27 33.3 °F 32.7 °F 30.3 in Calm   1.1 mph 98 % 0 in
07:32 33.3 °F 32.7 °F 30.3 in Calm   1.1 mph 98 % 0 in
07:37 33.3 °F 32.7 °F 30.3 in Calm   1.1 mph 98 % 0 in
07:42 33.3 °F 32.7 °F 30.3 in Calm   1.1 mph 98 % 0 in
07:47 33.3 °F 32.7 °F 30.3 in Calm   2 mph 98 % 0 in
07:52 33.3 °F 32.7 °F 30.3 in Calm   2 mph 98 % 0 in
07:57 33.3 °F 32.7 °F 30.3 in Calm     98 % 0 in
08:02 33.3 °F 32.7 °F 30.3 in Calm     98 % 0 in
08:07 33.3 °F 32.7 °F 30.3 in Calm     98 % 0 in
08:12 33.3 °F 32.7 °F 30.3 in Calm     98 % 0 in
08:17 33.3 °F 32.7 °F 30.3 in Calm     98 % 0 in
08:22 33.3 °F 32.7 °F 30.3 in Calm     98 % 0 in
08:27 33.3 °F 32.7 °F 30.3 in Calm     98 % 0 in
08:32 33.3 °F 32.7 °F 30.3 in Calm     98 % 0 in
08:37 33.4 °F 32.9 °F 30.3 in Calm     98 % 0 in
08:42 33.4 °F 32.9 °F 30.3 in Calm     98 % 0 in
08:47 33.4 °F 32.9 °F 30.3 in Calm     98 % 0 in
08:52 33.4 °F 32.9 °F 30.3 in Calm     98 % 0 in
08:57 33.6 °F 33.1 °F 30.3 in Calm     98 % 0 in
09:02 33.6 °F 33.1 °F 30.3 in Calm     98 % 0 in
09:07 33.6 °F 33.1 °F 30.3 in Calm     98 % 0 in
09:12 33.6 °F 33.1 °F 30.3 in Calm     98 % 0 in
09:17 33.6 °F 33.1 °F 30.3 in Calm     98 % 0 in
09:22 33.6 °F 33.1 °F 30.3 in Calm     98 % 0 in
09:27 33.6 °F 33.1 °F 30.3 in Calm     98 % 0 in
09:32 33.8 °F 33.3 °F 30.3 in Calm     98 % 0 in
09:37 33.8 °F 33.3 °F 30.3 in Calm     98 % 0 in
09:42 33.8 °F 33.3 °F 30.3 in Calm     98 % 0 in
09:47 34 °F 33.4 °F 30.3 in Calm     98 % 0 in
09:52 34 °F 33.4 °F 30.3 in Calm     98 % 0 in
09:57 34 °F 33.4 °F 30.3 in Calm     98 % 0 in
10:02 34.2 °F 33.6 °F 30.3 in Calm     98 % 0 in
10:07 34.2 °F 33.6 °F 30.3 in Calm     98 % 0 in
10:12 34.3 °F 33.8 °F 30.3 in Calm     98 % 0 in
10:17 34.3 °F 33.8 °F 30.3 in Calm     98 % 0 in
10:22 34.5 °F 34 °F 30.3 in Calm     98 % 0 in
10:27 34.9 °F 34.3 °F 30.3 in Calm     98 % 0 in
10:32 35.1 °F 34.5 °F 30.3 in Calm     98 % 0 in
10:37 35.4 °F 35.1 °F 30.4 in Calm     98 % 0 in
10:42 35.8 °F 35.2 °F 30.4 in Calm     98 % 0 in
10:47 36.1 °F 35.8 °F 30.4 in Calm     98 % 0 in
10:52 36.3 °F 36 °F 30.3 in Calm     98 % 0 in
10:57 36.7 °F 36.1 °F 30.3 in Calm     98 % 0 in
11:02 36.7 °F 36.1 °F 30.3 in Calm   2.7 mph 98 % 0 in
11:07 36.9 °F 36.3 °F 30.4 in Calm   2.7 mph 98 % 0 in
11:12 37 °F 36.7 °F 30.4 in Calm     98 % 0 in
11:17 37 °F 36.7 °F 30.4 in Calm   1.3 mph 98 % 0 in
11:22 37.2 °F 36.9 °F 30.4 in Calm   1.3 mph 98 % 0 in
11:27 37.2 °F 36.9 °F 30.4 in Calm     98 % 0 in
11:32 37.6 °F 37 °F 30.4 in Calm     98 % 0 in
11:37 37.6 °F 37 °F 30.4 in Calm     98 % 0 in
11:42 37.6 °F 37 °F 30.4 in Calm   0.9 mph 98 % 0 in
11:47 37.6 °F 37 °F 30.4 in Calm   1.3 mph 98 % 0 in
11:52 37.6 °F 37 °F 30.4 in Calm   1.3 mph 98 % 0 in
11:57 37.6 °F 37 °F 30.4 in Calm   1.1 mph 98 % 0 in
12:02 37.8 °F 37.2 °F 30.4 in Calm     98 % 0 in
12:07 37.9 °F 37.6 °F 30.4 in Calm     98 % 0 in
12:13 37.8 °F 37.2 °F 30.4 in Calm     98 % 0 in
12:18 37.8 °F 37.2 °F 30.4 in Calm     98 % 0 in
12:23 37.9 °F 37.6 °F 30.4 in Calm     98 % 0 in
12:28 37.9 °F 37.6 °F 30.4 in Calm     98 % 0 in
12:33 38.1 °F 37.8 °F 30.4 in Calm     98 % 0 in
12:38 38.1 °F 37.8 °F 30.4 in Calm     98 % 0 in
12:43 38.1 °F 37.8 °F 30.4 in Calm     98 % 0 in
12:48 38.1 °F 37.8 °F 30.4 in Calm     98 % 0 in
12:53 38.5 °F 37.8 °F 30.4 in Calm   1.1 mph 98 % 0 in
12:58 38.5 °F 37.9 °F 30.4 in Calm   1.1 mph 98 % 0 in
13:03 38.5 °F 37.9 °F 30.4 in Calm     98 % 0 in
13:08 38.5 °F 37.9 °F 30.4 in Calm     98 % 0 in
13:13 38.7 °F 38.1 °F 30.4 in SW 0.9 mph 0.9 mph 98 % 0 in
13:18 38.8 °F 38.5 °F 30.4 in Calm   1.3 mph 98 % 0 in
13:23 39 °F 38.5 °F 30.4 in Calm   1.3 mph 98 % 0 in
13:28 39 °F 38.5 °F 30.4 in Calm     98 % 0 in
13:33 39 °F 38.5 °F 30.4 in Calm     98 % 0 in
13:38 39 °F 38.5 °F 30.3 in SSW 2.2 mph 2.5 mph 98 % 0 in
13:43 39 °F 38.5 °F 30.3 in Calm   2.5 mph 98 % 0 in
13:48 39 °F 38.5 °F 30.3 in Calm   2.5 mph 98 % 0 in
13:53 39 °F 38.5 °F 30.3 in Calm   2.5 mph 98 % 0 in
13:58 38.8 °F 38.5 °F 30.3 in Calm   1.1 mph 98 % 0 in
14:03 38.8 °F 38.5 °F 30.3 in Calm   1.1 mph 98 % 0 in
14:08 38.8 °F 38.5 °F 30.3 in Calm     98 % 0 in
14:13 38.7 °F 38.1 °F 30.3 in Calm     98 % 0 in
14:18 38.7 °F 38.1 °F 30.3 in Calm     98 % 0 in
14:23 38.7 °F 38.1 °F 30.3 in Calm     98 % 0 in
14:28 38.5 °F 37.9 °F 30.3 in Calm     98 % 0 in
14:33 38.5 °F 37.8 °F 30.3 in Calm     98 % 0 in
14:38 38.1 °F 37.8 °F 30.3 in Calm     98 % 0 in
14:43 37.9 °F 37.6 °F 30.3 in Calm   2.5 mph 98 % 0 in
14:48 37.8 °F 37.2 °F 30.3 in Calm   2.5 mph 98 % 0 in
14:53 37.6 °F 37 °F 30.3 in Calm   4.3 mph 98 % 0 in
14:58 37.6 °F 37 °F 30.3 in Calm   4.3 mph 98 % 0 in
15:03 37.6 °F 37 °F 30.3 in SSE 1.3 mph 2.5 mph 98 % 0 in
15:08 37.6 °F 37 °F 30.3 in South 0.9 mph 2.5 mph 98 % 0 in
15:13 37.6 °F 37 °F 30.3 in Calm   2.9 mph 98 % 0 in
15:18 37.6 °F 37 °F 30.3 in Calm   3.1 mph 98 % 0 in
15:23 37.6 °F 37 °F 30.3 in Calm   3.1 mph 98 % 0 in
15:28 37.6 °F 37 °F 30.3 in Calm     98 % 0 in
15:33 37.6 °F 37 °F 30.3 in Calm     98 % 0 in
15:38 37.2 °F 36.9 °F 30.3 in SSW 2.9 mph 3.1 mph 98 % 0 in
15:43 37 °F 36.7 °F 30.3 in Calm   3.1 mph 98 % 0 in
15:48 36.9 °F 36.3 °F 30.3 in Calm   3.1 mph 98 % 0 in
15:53 36.9 °F 36.3 °F 30.3 in Calm   2.9 mph 98 % 0 in
15:58 36.9 °F 36.3 °F 30.3 in Calm   2.9 mph 98 % 0 in
15:59 36.9 °F 36.3 °F 30.3 in Calm   2.9 mph 98 % 0 in
16:04 36.9 °F 36.3 °F 30.3 in Calm   2.7 mph 98 % 0 in
16:09 36.7 °F 36.1 °F 30.4 in Calm   1.3 mph 98 % 0 in
16:14 36.3 °F 36 °F 30.4 in Calm     98 % 0 in
16:19 36.3 °F 36 °F 30.4 in Calm   0.9 mph 98 % 0 in
16:24 36.3 °F 36 °F 30.4 in Calm   0.9 mph 98 % 0 in
16:29 36.1 °F 35.8 °F 30.4 in Calm     98 % 0 in
16:34 36.1 °F 35.8 °F 30.4 in Calm     98 % 0 in
16:39 36.1 °F 35.8 °F 30.4 in Calm   3.6 mph 98 % 0 in
16:44 36.1 °F 35.4 °F 30.4 in ESE 2.2 mph 4 mph 98 % 0 in
16:49 36.1 °F 35.4 °F 30.4 in Calm   4 mph 98 % 0 in
16:54 36.1 °F 35.4 °F 30.4 in Calm   3.6 mph 98 % 0 in
16:59 36.1 °F 35.4 °F 30.4 in South 2.7 mph 2.7 mph 98 % 0 in
17:04 36.1 °F 35.4 °F 30.4 in Calm   2.7 mph 98 % 0 in
17:09 36 °F 35.4 °F 30.4 in Calm   3.1 mph 98 % 0 in
17:14 35.8 °F 35.2 °F 30.4 in Calm   3.1 mph 98 % 0 in
17:19 35.8 °F 35.2 °F 30.4 in Calm     98 % 0 in
17:24 35.8 °F 35.2 °F 30.4 in Calm     98 % 0 in
17:29 35.4 °F 35.1 °F 30.4 in Calm     98 % 0 in
17:34 35.4 °F 35.1 °F 30.4 in Calm   2.5 mph 98 % 0 in
17:39 35.4 °F 34.9 °F 30.4 in Calm   2.5 mph 98 % 0 in
17:44 35.4 °F 34.9 °F 30.4 in Calm   2.7 mph 98 % 0 in
17:49 35.2 °F 34.7 °F 30.4 in Calm   2.7 mph 98 % 0 in
17:54 35.2 °F 34.7 °F 30.4 in Calm   1.6 mph 98 % 0 in
17:59 35.1 °F 34.5 °F 30.4 in Calm   1.6 mph 98 % 0 in
18:04 35.1 °F 34.5 °F 30.4 in Calm   2.7 mph 98 % 0 in
18:09 35.1 °F 34.5 °F 30.4 in Calm   2.7 mph 98 % 0 in
18:14 34.9 °F 34.3 °F 30.4 in South 3.6 mph 3.6 mph 98 % 0 in
18:19 34.9 °F 34.3 °F 30.4 in South 2.9 mph 4.7 mph 98 % 0 in
18:24 34.9 °F 34.3 °F 30.4 in SSE 2.5 mph 5.6 mph 98 % 0 in
18:29 34.5 °F 34.2 °F 30.4 in SSE 1.1 mph 5.6 mph 98 % 0 in
18:34 34.5 °F 34 °F 30.4 in SSE 4.9 mph 4.9 mph 98 % 0 in
18:39 34.5 °F 34 °F 30.4 in Calm   5.4 mph 98 % 0 in
18:44 34.3 °F 33.8 °F 30.4 in Calm   5.4 mph 98 % 0 in
18:49 34.3 °F 33.8 °F 30.4 in South 2.7 mph 5.6 mph 98 % 0 in
18:54 34.2 °F 33.6 °F 30.4 in South 3.8 mph 5.6 mph 98 % 0 in
18:59 34 °F 33.4 °F 30.4 in South 4.9 mph 4.9 mph 98 % 0 in
19:04 33.8 °F 33.3 °F 30.4 in SSE 3.8 mph 4.9 mph 98 % 0 in
19:09 33.8 °F 33.3 °F 30.4 in SSW 2.2 mph 4.3 mph 98 % 0 in
19:14 33.6 °F 33.1 °F 30.4 in Calm   4.3 mph 98 % 0 in
19:19 33.6 °F 33.1 °F 30.4 in Calm   4 mph 98 % 0 in
19:24 33.4 °F 32.9 °F 30.4 in SSE 1.1 mph 4 mph 98 % 0 in
19:29 33.3 °F 32.7 °F 30.4 in SSE 2.9 mph 4.3 mph 98 % 0 in
19:34 33.3 °F 32.7 °F 30.4 in SSE 3.4 mph 4.9 mph 98 % 0 in
19:39 33.3 °F 32.7 °F 30.4 in South 2 mph 4.9 mph 98 % 0 in
19:44 33.3 °F 32.7 °F 30.4 in Calm   5.4 mph 98 % 0 in
19:49 33.1 °F 32.5 °F 30.4 in Calm   5.4 mph 98 % 0 in
19:54 33.1 °F 32.5 °F 30.4 in SSW 2.5 mph 3.1 mph 98 % 0 in
19:59 33.1 °F 32.5 °F 30.4 in South 2.5 mph 3.8 mph 98 % 0 in
20:04 32.9 °F 32.4 °F 30.4 in SSW 2.5 mph 3.8 mph 98 % 0 in
20:09 32.9 °F 32.4 °F 30.4 in Calm   3.6 mph 98 % 0 in
20:14 32.7 °F 32.2 °F 30.4 in Calm   3.1 mph 98 % 0 in
20:19 32.7 °F 32.2 °F 30.4 in Calm   2.9 mph 98 % 0 in
20:24 32.7 °F 32.2 °F 30.4 in Calm   2.9 mph 98 % 0 in
20:29 32.7 °F 32.2 °F 30.4 in Calm   2 mph 98 % 0 in
20:34 32.7 °F 32.2 °F 30.4 in Calm   2 mph 98 % 0 in
20:39 32.7 °F 32.2 °F 30.4 in Calm   3.1 mph 98 % 0 in
20:44 32.5 °F 32 °F 30.4 in Calm   3.1 mph 98 % 0 in
20:49 32.5 °F 32 °F 30.4 in South 2.2 mph 2.2 mph 98 % 0 in
20:54 32.5 °F 32 °F 30.4 in SSE 2.5 mph 3.1 mph 98 % 0 in
20:59 32.5 °F 32 °F 30.4 in SSE 2.9 mph 3.6 mph 98 % 0 in
21:04 32.5 °F 32 °F 30.4 in SSE 4.9 mph 4.9 mph 98 % 0 in
21:09 32.5 °F 32 °F 30.4 in SSW 3.6 mph 4.9 mph 98 % 0 in
21:14 32.5 °F 32 °F 30.4 in SSW 3.6 mph 4.3 mph 98 % 0 in
21:19 32.5 °F 32 °F 30.4 in SSW 1.1 mph 4.3 mph 98 % 0 in
21:24 32.5 °F 32 °F 30.4 in Calm   6.5 mph 98 % 0 in
21:29 32.5 °F 32 °F 30.4 in Calm   6.5 mph 98 % 0 in
21:34 32.5 °F 32 °F 30.4 in Calm   4.3 mph 98 % 0 in
21:39 32.5 °F 32 °F 30.4 in South 2.9 mph 3.4 mph 98 % 0 in
21:44 32.5 °F 32 °F 30.4 in Calm   3.4 mph 98 % 0 in
21:49 32.5 °F 32 °F 30.4 in Calm   3.1 mph 98 % 0 in
21:54 32.5 °F 32 °F 30.4 in Calm   4 mph 98 % 0 in
22:00 32.5 °F 32 °F 30.4 in WSW 2 mph 4 mph 98 % 0 in
22:04 32.5 °F 32 °F 30.4 in South 2.5 mph 3.1 mph 98 % 0 in
22:10 32.5 °F 32 °F 30.4 in Calm   3.1 mph 98 % 0 in
22:15 32.5 °F 32 °F 30.4 in Calm   2 mph 98 % 0 in
22:20 32.5 °F 32 °F 30.4 in Calm   4 mph 98 % 0 in
22:24 32.5 °F 32 °F 30.4 in Calm   4 mph 98 % 0 in
22:30 32.5 °F 32 °F 30.4 in Calm     98 % 0 in
22:35 32.5 °F 32 °F 30.4 in SE 3.4 mph 3.8 mph 98 % 0 in
22:40 32.5 °F 32 °F 30.4 in SE 3.4 mph 5.6 mph 98 % 0 in
22:45 32.4 °F 31.8 °F 30.4 in SE 2.7 mph 5.6 mph 98 % 0 in
22:50 32.4 °F 31.8 °F 30.4 in ESE 3.1 mph 4.3 mph 98 % 0 in
22:55 32.4 °F 31.8 °F 30.4 in Calm   5.4 mph 98 % 0 in
23:00 32.4 °F 31.8 °F 30.4 in SSE 3.8 mph 5.4 mph 98 % 0 in
23:05 32.2 °F 31.6 °F 30.4 in SSE 0.9 mph 4.7 mph 98 % 0 in
23:10 32.2 °F 31.6 °F 30.4 in SSE 3.4 mph 6.3 mph 98 % 0 in
23:15 32 °F 31.5 °F 30.4 in SE 2.9 mph 6.3 mph 98 % 0 in
23:20 32 °F 31.5 °F 30.4 in SSE 2.5 mph 5.8 mph 98 % 0 in
23:25 32 °F 31.5 °F 30.4 in Calm   4.5 mph 98 % 0 in
23:30 32 °F 31.5 °F 30.4 in Calm   3.8 mph 98 % 0 in
23:35 32 °F 31.5 °F 30.4 in SSE 2.9 mph 4.7 mph 98 % 0 in
23:40 32 °F 31.5 °F 30.4 in SSW 2.9 mph 4.9 mph 98 % 0 in
23:45 32 °F 31.5 °F 30.4 in South 2.5 mph 4.9 mph 98 % 0 in
23:50 32 °F 31.5 °F 30.4 in Calm   4.9 mph 98 % 0 in
23:55 32 °F 31.5 °F 30.4 in Calm   4.7 mph 98 % 0 in
Le Gheer Warneton
Courtoisie de Weather Underground - 2.25 mb

Mise a jour : 17/12/2017 22:26:11
Généré par Cumulus 1.9.4 (1099)